Savant Lake, Canada
Current Conditions -  °F | °C
As of 8:00 PM on Friday 21 Nov 2014 (Local Time) from CYXL Reporting Station
Scattered Clouds Scattered Clouds  
Wind Chill: 15°   Ceiling: Unl
Heat Index: 27°   Visibility: 15mi
Dew Point: 19°   Wind: 15mph
Humidity: 74%   Direction: 210°SSW
Pressure: 29.5"   Gusts: 25mph
Location:  50.23°N, 90.72°W
Report Text: CYXL 220200Z 21013G22KT 170V240 15SM FEW150 SCT220 M03/M07 A2950 RMK AC1CI2 OBS TAKEN +15 SLP016
Loading
Personal Weather Stations






























Interactive Weather Map New forecast layout! Learn more

10-Day Weather Forecast

Advertisements
Track Severe Weather on mobile